createdAt,value
2019-05-20T00:02:04.046Z,23.07
2019-05-20T00:04:35.773Z,18.67
2019-05-20T00:07:07.551Z,19.87
2019-05-20T00:09:38.897Z,21.75
2019-05-20T00:12:10.696Z,20.43
2019-05-20T00:14:42.264Z,22.07
2019-05-20T00:17:14.084Z,19.55
2019-05-20T00:19:45.869Z,22.15
2019-05-20T00:22:17.285Z,21.07
2019-05-20T00:24:48.591Z,20.68
2019-05-20T00:27:20.474Z,19.70
2019-05-20T00:29:51.975Z,24.87
2019-05-20T00:32:40.013Z,21.40
2019-05-20T00:34:57.837Z,20.85
2019-05-20T00:37:29.254Z,27.42
2019-05-20T00:40:01.117Z,20.88
2019-05-20T00:42:32.801Z,22.05
2019-05-20T00:48:32.648Z,23.22
2019-05-20T00:54:16.654Z,23.00
2019-05-20T00:56:50.535Z,28.50
2019-05-20T00:59:21.945Z,22.98
2019-05-20T01:01:54.670Z,22.70
2019-05-20T01:04:26.043Z,24.05
2019-05-20T01:06:57.397Z,21.52
2019-05-20T01:09:28.778Z,21.02
2019-05-20T01:12:00.199Z,21.27
2019-05-20T01:14:32.089Z,21.48
2019-05-20T01:17:03.467Z,22.13
2019-05-20T01:19:35.485Z,21.75
2019-05-20T01:22:07.012Z,23.57
2019-05-20T01:24:38.573Z,22.85
2019-05-20T01:27:10.094Z,25.23
2019-05-20T01:29:41.797Z,25.00
2019-05-20T01:32:13.698Z,22.20
2019-05-20T01:34:45.097Z,22.60
2019-05-20T01:37:16.498Z,24.57
2019-05-20T01:39:48.161Z,22.90
2019-05-20T01:42:19.594Z,23.73
2019-05-20T01:44:51.082Z,25.23
2019-05-20T01:47:22.707Z,22.20
2019-05-20T01:49:54.394Z,21.95
2019-05-20T01:52:25.713Z,24.80
2019-05-20T01:54:57.121Z,25.10
2019-05-20T01:57:28.800Z,25.65
2019-05-20T02:00:00.305Z,24.23
2019-05-20T02:02:32.169Z,24.07
2019-05-20T02:05:04.189Z,22.93
2019-05-20T02:07:35.787Z,22.30
2019-05-20T02:10:07.969Z,24.65
2019-05-20T02:12:39.681Z,24.27
2019-05-20T02:15:21.443Z,22.93
2019-05-20T02:17:52.935Z,23.75
2019-05-20T02:20:24.305Z,23.45
2019-05-20T02:23:13.778Z,24.07
2019-05-20T02:25:47.693Z,23.35
2019-05-20T02:28:19.012Z,25.05
2019-05-20T02:30:50.421Z,23.45
2019-05-20T02:33:22.015Z,23.83
2019-05-20T02:35:53.604Z,25.02
2019-05-20T02:38:25.105Z,22.52
2019-05-20T02:40:56.441Z,25.75
2019-05-20T02:43:28.087Z,23.38
2019-05-20T02:45:59.855Z,24.52
2019-05-20T02:48:32.086Z,24.98
2019-05-20T02:51:03.629Z,22.45
2019-05-20T03:03:22.919Z,22.77
2019-05-20T03:05:54.304Z,25.35
2019-05-20T03:08:25.948Z,27.10
2019-05-20T03:10:57.208Z,24.72
2019-05-20T03:13:28.682Z,23.75
2019-05-20T03:16:00.245Z,27.62
2019-05-20T03:18:32.182Z,30.27
2019-05-20T03:21:03.621Z,29.37
2019-05-20T03:23:35.576Z,29.15
2019-05-20T03:26:06.894Z,33.53
2019-05-20T03:28:38.710Z,33.98
2019-05-20T03:31:10.169Z,29.40
2019-05-20T03:33:41.667Z,30.57
2019-05-20T03:36:13.149Z,30.50
2019-05-20T03:38:44.478Z,29.87
2019-05-20T03:41:15.928Z,28.70
2019-05-20T03:43:47.664Z,28.50
2019-05-20T03:46:19.257Z,30.45
2019-05-20T03:48:50.968Z,28.67
2019-05-20T03:51:22.327Z,29.42
2019-05-20T03:53:54.093Z,29.85
2019-05-20T03:56:25.493Z,28.92
2019-05-20T03:58:56.777Z,32.20
2019-05-20T04:01:28.059Z,30.50
2019-05-20T04:03:59.392Z,34.78
2019-05-20T04:09:45.799Z,31.97
2019-05-20T04:12:17.216Z,33.20
2019-05-20T04:14:48.636Z,27.17
2019-05-20T04:17:20.077Z,27.20
2019-05-20T04:19:51.481Z,26.50
2019-05-20T04:22:22.830Z,27.02
2019-05-20T04:24:54.125Z,30.00
2019-05-20T04:27:25.404Z,27.67
2019-05-20T04:29:58.373Z,33.25
2019-05-20T04:32:30.494Z,33.28
2019-05-20T04:35:20.407Z,35.90
2019-05-20T04:37:36.369Z,30.37
2019-05-20T04:40:08.042Z,28.00
2019-05-20T04:42:39.491Z,33.80
2019-05-20T04:45:11.564Z,25.68
2019-05-20T04:47:43.812Z,29.90
2019-05-20T04:50:16.941Z,28.52
2019-05-20T04:52:48.442Z,35.73
2019-05-20T04:55:20.064Z,30.30
2019-05-20T04:57:52.081Z,22.45
2019-05-20T05:00:54.576Z,25.52
2019-05-20T05:03:25.980Z,27.02
2019-05-20T05:05:57.729Z,26.23
2019-05-20T05:08:29.251Z,26.50
2019-05-20T05:11:00.814Z,21.80
2019-05-20T05:13:32.219Z,28.17
2019-05-20T05:16:03.894Z,25.80
2019-05-20T05:18:35.528Z,23.07
2019-05-20T05:21:07.123Z,24.10
2019-05-20T05:23:39.675Z,21.45
2019-05-20T05:26:11.054Z,25.32
2019-05-20T05:28:42.883Z,22.42
2019-05-20T05:31:14.512Z,26.12
2019-05-20T05:33:46.222Z,26.65
2019-05-20T05:36:17.468Z,20.77
2019-05-20T05:38:48.773Z,26.50
2019-05-20T05:41:20.083Z,20.85
2019-05-20T05:43:51.673Z,17.62
2019-05-20T05:46:23.150Z,21.45
2019-05-20T05:48:54.476Z,20.57
2019-05-20T05:51:26.009Z,17.17
2019-05-20T05:53:57.209Z,22.25
2019-05-20T05:56:28.473Z,18.52
2019-05-20T05:59:00.251Z,18.92
2019-05-20T06:01:32.586Z,15.98
2019-05-20T06:04:04.731Z,17.95
2019-05-20T06:06:36.410Z,17.62
2019-05-20T06:09:08.845Z,18.80
2019-05-20T06:11:40.359Z,14.43
2019-05-20T06:14:11.901Z,20.97
2019-05-20T06:16:43.658Z,27.05
2019-05-20T06:19:14.947Z,23.22
2019-05-20T06:21:46.326Z,21.10
2019-05-20T06:24:17.663Z,22.60
2019-05-20T06:26:49.017Z,22.55
2019-05-20T06:29:20.417Z,22.13
2019-05-20T06:31:52.303Z,20.43
2019-05-20T06:34:24.025Z,17.55
2019-05-20T06:36:57.738Z,23.52
2019-05-20T06:39:29.535Z,19.45
2019-05-20T06:42:00.846Z,19.50
2019-05-20T06:44:32.252Z,17.25
2019-05-20T06:47:03.655Z,18.82
2019-05-20T06:49:34.971Z,25.60
2019-05-20T06:52:07.290Z,35.70
2019-05-20T06:54:38.740Z,26.37
2019-05-20T06:57:10.445Z,24.92
2019-05-20T06:59:42.987Z,19.23
2019-05-20T07:02:16.407Z,16.77
2019-05-20T07:04:47.890Z,16.95
2019-05-20T07:07:21.289Z,17.70
2019-05-20T07:09:53.699Z,15.98
2019-05-20T07:12:40.046Z,17.62
2019-05-20T07:14:58.275Z,15.90
2019-05-20T07:17:29.643Z,16.17
2019-05-20T07:20:01.140Z,19.00
2019-05-20T07:22:33.195Z,18.07
2019-05-20T07:25:04.694Z,15.55
2019-05-20T07:27:36.891Z,14.90
2019-05-20T07:30:09.555Z,17.92
2019-05-20T07:32:41.068Z,15.83
2019-05-20T07:35:28.777Z,15.55
2019-05-20T07:37:46.510Z,14.80
2019-05-20T07:43:28.108Z,17.30
2019-05-20T07:46:00.290Z,19.37
2019-05-20T07:48:33.166Z,18.00
2019-05-20T07:51:05.933Z,14.13
2019-05-20T07:53:38.100Z,14.28
2019-05-20T08:08:06.377Z,22.02
2019-05-20T08:10:37.966Z,18.67
2019-05-20T08:13:09.581Z,23.47
2019-05-20T08:15:41.242Z,12.50
2019-05-20T08:18:12.617Z,11.70
2019-05-20T08:20:44.082Z,10.53
2019-05-20T08:23:15.330Z,18.60
2019-05-20T08:25:46.635Z,10.05
2019-05-20T08:28:18.231Z,10.65
2019-05-20T08:30:50.016Z,11.00
2019-05-20T08:33:21.692Z,9.95
2019-05-20T08:35:53.276Z,16.75
2019-05-20T08:38:24.623Z,12.70
2019-05-20T08:40:56.123Z,20.55
2019-05-20T08:43:27.698Z,16.00
2019-05-20T08:45:59.216Z,18.67
2019-05-20T08:48:31.115Z,24.43
2019-05-20T08:51:02.757Z,20.27
2019-05-20T08:53:34.532Z,15.15
2019-05-20T08:56:06.017Z,17.20
2019-05-20T08:58:37.502Z,13.98
2019-05-20T09:01:11.350Z,12.37
2019-05-20T09:12:49.574Z,8.73
2019-05-20T09:15:21.167Z,15.85
2019-05-20T09:17:52.493Z,17.32
2019-05-20T09:20:24.530Z,20.15
2019-05-20T09:22:56.041Z,12.10
2019-05-20T09:25:32.294Z,19.25
2019-05-20T09:28:03.713Z,10.78
2019-05-20T09:30:35.103Z,10.48
2019-05-20T09:33:07.437Z,15.40
2019-05-20T09:35:41.055Z,12.33
2019-05-20T09:38:20.294Z,13.65
2019-05-20T09:40:47.458Z,12.75
2019-05-20T09:43:19.017Z,18.12
2019-05-20T09:46:06.241Z,18.80
2019-05-20T09:48:25.615Z,14.23
2019-05-20T09:50:57.245Z,19.27
2019-05-20T09:53:28.948Z,18.12
2019-05-20T09:56:00.836Z,23.38
2019-05-20T09:58:32.582Z,19.40
2019-05-20T10:01:04.154Z,13.98
2019-05-20T10:09:10.081Z,13.93
2019-05-20T10:11:42.336Z,14.25
2019-05-20T10:14:14.908Z,15.75
2019-05-20T10:16:49.341Z,14.03
2019-05-20T10:19:20.895Z,14.50
2019-05-20T10:21:52.517Z,18.15
2019-05-20T10:24:24.128Z,14.13
2019-05-20T10:26:58.818Z,17.70
2019-05-20T10:29:30.373Z,12.85
2019-05-20T10:32:01.962Z,11.60
2019-05-20T10:34:37.183Z,16.55
2019-05-20T10:37:07.080Z,10.45
2019-05-20T10:39:38.680Z,9.68
2019-05-20T10:42:10.512Z,14.38
2019-05-20T10:44:42.141Z,11.10
2019-05-20T10:47:13.804Z,15.32
2019-05-20T10:55:39.256Z,16.10
2019-05-20T10:58:10.726Z,11.20
2019-05-20T11:01:01.074Z,11.25
2019-05-20T11:09:14.310Z,15.05
2019-05-20T11:11:45.943Z,11.20
2019-05-20T11:14:17.161Z,11.05
2019-05-20T11:16:48.556Z,11.35
2019-05-20T11:19:20.006Z,7.65
2019-05-20T11:21:51.406Z,13.13
2019-05-20T11:24:23.061Z,9.20
2019-05-20T11:26:54.335Z,12.50
2019-05-20T11:29:26.087Z,13.38
2019-05-20T11:31:57.507Z,10.45
2019-05-20T11:34:28.843Z,11.40
2019-05-20T11:37:00.688Z,12.37
2019-05-20T11:39:34.102Z,10.78
2019-05-20T11:42:05.755Z,10.23
2019-05-20T11:44:37.094Z,10.80
2019-05-20T11:47:08.605Z,10.55
2019-05-20T11:49:40.365Z,11.15
2019-05-20T11:52:11.956Z,11.05
2019-05-20T11:54:43.727Z,9.95
2019-05-20T11:57:15.029Z,15.68
2019-05-20T11:59:46.465Z,15.08
2019-05-20T12:08:28.319Z,12.93
2019-05-20T12:10:59.723Z,14.47
2019-05-20T13:36:03.660Z,15.13
2019-05-20T13:50:00.137Z,16.87
2019-05-20T14:13:02.834Z,12.95
2019-05-20T14:49:59.610Z,11.03
2019-05-20T14:59:59.103Z,11.93
2019-05-20T15:07:30.049Z,13.28
2019-05-20T15:11:01.158Z,13.50
2019-05-20T15:35:09.873Z,12.90
2019-05-20T15:38:51.511Z,11.80
2019-05-20T15:45:33.728Z,8.58
2019-05-20T15:48:57.687Z,11.43
2019-05-20T15:52:23.886Z,10.85
2019-05-20T15:55:59.633Z,8.73
2019-05-20T16:14:04.479Z,9.83
2019-05-20T16:17:25.621Z,7.92
2019-05-20T16:21:28.121Z,8.88
2019-05-20T16:25:03.797Z,9.85
2019-05-20T16:28:34.846Z,9.10
2019-05-20T16:41:56.996Z,9.35
2019-05-20T16:45:15.252Z,11.80
2019-05-20T16:48:43.451Z,15.58
2019-05-20T16:52:16.952Z,10.75
2019-05-20T16:55:45.607Z,7.12
2019-05-20T16:59:05.541Z,7.20
2019-05-20T17:02:26.089Z,7.62
2019-05-20T17:05:55.672Z,6.08
2019-05-20T17:09:15.349Z,7.40
2019-05-20T17:12:38.665Z,4.40
2019-05-20T17:15:58.204Z,5.45
2019-05-20T17:19:15.011Z,6.10
2019-05-20T17:22:03.228Z,5.70
2019-05-20T17:25:25.238Z,7.45
2019-05-20T17:28:45.234Z,6.85
2019-05-20T17:32:38.678Z,8.00
2019-05-20T17:36:01.055Z,6.75
2019-05-20T17:38:33.716Z,6.80
2019-05-20T17:41:05.611Z,10.43
2019-05-20T17:43:37.504Z,7.15
2019-05-20T17:46:08.947Z,8.73
2019-05-20T17:48:40.384Z,7.87
2019-05-20T17:51:12.443Z,9.50
2019-05-20T17:53:44.667Z,7.83
2019-05-20T17:56:16.290Z,8.88
2019-05-20T17:58:47.753Z,9.30
2019-05-20T18:01:19.245Z,6.78
2019-05-20T18:03:51.141Z,14.73
2019-05-20T18:06:22.724Z,10.93
2019-05-20T18:08:56.055Z,9.30
2019-05-20T18:11:27.333Z,7.78
2019-05-20T18:14:03.513Z,8.30
2019-05-20T18:16:35.096Z,10.68
2019-05-20T18:19:06.680Z,8.93
2019-05-20T18:21:38.269Z,7.40
2019-05-20T18:24:09.625Z,8.43
2019-05-20T18:26:40.999Z,10.20
2019-05-20T18:29:13.434Z,9.25
2019-05-20T18:31:46.829Z,12.18
2019-05-20T18:34:18.061Z,15.03
2019-05-20T18:36:49.406Z,14.25
2019-05-20T18:39:20.856Z,19.60
2019-05-20T18:41:52.451Z,19.37
2019-05-20T18:44:24.068Z,17.70
2019-05-20T18:46:55.462Z,20.57
2019-05-20T18:49:26.727Z,20.80
2019-05-20T18:51:58.055Z,17.65
2019-05-20T18:54:29.585Z,18.05
2019-05-20T18:57:01.931Z,18.23
2019-05-20T18:59:33.547Z,15.75
2019-05-20T19:02:05.905Z,16.93
2019-05-20T19:05:32.635Z,13.90
2019-05-20T19:09:04.925Z,16.05
2019-05-20T19:12:29.896Z,17.50
2019-05-20T19:15:59.258Z,17.82
2019-05-20T19:19:27.491Z,16.02
2019-05-20T19:23:16.993Z,16.90
2019-05-20T19:27:06.871Z,16.37
2019-05-20T19:30:55.518Z,14.65
2019-05-20T19:34:32.566Z,16.77
2019-05-20T19:41:36.853Z,14.58
2019-05-20T19:45:06.560Z,16.10
2019-05-20T19:48:29.176Z,12.33
2019-05-20T19:52:04.249Z,13.20
2019-05-20T20:03:35.900Z,11.68
2019-05-20T20:07:21.679Z,9.43
2019-05-20T20:14:30.686Z,13.35
2019-05-20T20:18:03.276Z,12.63
2019-05-20T20:21:23.949Z,11.75
2019-05-20T20:24:51.879Z,18.05
2019-05-20T20:28:18.858Z,21.60
2019-05-20T20:31:48.547Z,23.05
2019-05-20T20:38:26.500Z,20.08
2019-05-20T20:41:54.327Z,23.47
2019-05-20T20:45:23.639Z,21.50
2019-05-20T20:49:09.122Z,24.82
2019-05-20T20:52:32.754Z,25.68
2019-05-20T20:56:00.171Z,26.73
2019-05-20T20:59:32.216Z,20.75
2019-05-20T21:03:08.254Z,21.93
2019-05-20T21:06:29.021Z,20.88
2019-05-20T21:10:11.809Z,20.55
2019-05-20T21:14:06.406Z,19.55
2019-05-20T21:17:35.880Z,17.75
2019-05-20T21:21:13.376Z,16.93
2019-05-20T21:25:02.234Z,19.35
2019-05-20T21:28:53.014Z,17.42
2019-05-20T21:32:22.699Z,19.42
2019-05-20T21:35:53.865Z,18.12
2019-05-20T21:39:22.273Z,15.43
2019-05-20T21:42:38.590Z,16.40
2019-05-20T21:46:10.334Z,17.32
2019-05-20T21:49:46.453Z,13.58
2019-05-20T21:53:12.784Z,13.85
2019-05-20T21:56:34.546Z,13.93
2019-05-20T22:03:38.619Z,14.83
2019-05-20T22:07:06.253Z,15.45
2019-05-20T22:10:31.294Z,13.58
2019-05-20T22:13:55.131Z,16.90
2019-05-20T22:17:21.705Z,13.43
2019-05-20T22:20:44.814Z,15.13
2019-05-20T22:24:09.138Z,13.25
2019-05-20T22:27:33.161Z,13.40
2019-05-20T22:31:12.776Z,17.57
2019-05-20T22:34:51.340Z,12.80
2019-05-20T22:38:05.955Z,14.20
2019-05-20T22:41:27.970Z,17.85
2019-05-20T22:44:49.357Z,14.10
2019-05-20T22:48:20.746Z,14.20
2019-05-20T22:51:41.577Z,12.98
2019-05-20T22:55:24.010Z,14.73
2019-05-20T22:58:45.587Z,13.50
2019-05-20T23:02:02.135Z,15.10
2019-05-20T23:04:44.697Z,10.93
2019-05-20T23:07:16.171Z,11.80
2019-05-20T23:09:47.357Z,17.40
2019-05-20T23:12:18.758Z,10.70
2019-05-20T23:14:50.214Z,12.65
2019-05-20T23:17:21.593Z,14.40
2019-05-20T23:19:52.927Z,11.55
2019-05-20T23:22:24.189Z,12.85
2019-05-20T23:24:55.390Z,11.63
2019-05-20T23:27:26.884Z,11.78
2019-05-20T23:29:58.178Z,12.15
2019-05-20T23:32:29.819Z,12.23
2019-05-20T23:35:01.331Z,13.50
2019-05-20T23:37:33.084Z,11.40
2019-05-20T23:40:05.615Z,11.08
2019-05-20T23:42:38.055Z,12.60
2019-05-20T23:45:10.118Z,14.58
2019-05-20T23:47:41.656Z,11.93
2019-05-20T23:50:13.067Z,11.80
2019-05-20T23:52:44.810Z,11.48
2019-05-20T23:55:16.280Z,12.30
2019-05-20T23:57:47.725Z,13.40
